Time,TemperatureF,DewpointF,PressureIn,WindDirection,WindDirectionDegrees,WindSpeedMPH,WindSpeedGustMPH,Humidity,HourlyPrecipIn,Conditions,Clouds,dailyrainin,SoftwareType,DateUTC
2013-03-12 00:00:00,38.2,26.3,30.04,WNW,294,0.0,0.0,62,0.00,,---,0.00,VWS V14.01,2013-03-12 05:00:00,
2013-03-12 00:05:00,37.3,25.1,30.04,WNW,294,0.0,0.0,61,0.00,,---,0.00,VWS V14.01,2013-03-12 05:05:00,
2013-03-12 00:10:00,37.0,24.4,30.04,WNW,294,0.0,0.0,60,0.00,,---,0.00,VWS V14.01,2013-03-12 05:10:00,
2013-03-12 00:15:00,36.5,27.0,30.04,WNW,294,0.0,0.0,68,0.00,,---,0.00,VWS V14.01,2013-03-12 05:15:00,
2013-03-12 00:20:00,36.8,25.4,30.04,WNW,294,0.0,0.0,63,0.00,,---,0.00,VWS V14.01,2013-03-12 05:20:00,
2013-03-12 00:25:00,37.8,24.0,30.04,WNW,294,0.0,0.0,57,0.00,,---,0.00,VWS V14.01,2013-03-12 05:25:00,
2013-03-12 00:30:00,36.6,25.6,30.05,WNW,294,2.0,2.0,64,0.00,,---,0.00,VWS V14.01,2013-03-12 05:30:00,
2013-03-12 00:35:00,34.7,24.1,30.05,WNW,294,0.0,0.0,65,0.00,,---,0.00,VWS V14.01,2013-03-12 05:35:00,
2013-03-12 00:40:00,33.5,24.4,30.05,WNW,294,0.0,0.0,69,0.00,,---,0.00,VWS V14.01,2013-03-12 05:40:00,
2013-03-12 00:45:00,33.6,24.5,30.05,WNW,294,0.0,0.0,69,0.00,,---,0.00,VWS V14.01,2013-03-12 05:45:00,
2013-03-12 00:50:00,33.8,26.1,30.05,WNW,294,0.0,0.0,73,0.00,,---,0.00,VWS V14.01,2013-03-12 05:50:00,
2013-03-12 00:55:00,33.8,26.4,30.05,WNW,294,0.0,0.0,74,0.00,,---,0.00,VWS V14.01,2013-03-12 05:55:00,
2013-03-12 01:00:00,33.8,25.4,30.06,WNW,294,0.0,0.0,71,0.00,,---,0.00,VWS V14.01,2013-03-12 06:00:00,
2013-03-12 01:05:00,33.9,25.5,30.06,WNW,294,0.0,0.0,71,0.00,,---,0.00,VWS V14.01,2013-03-12 06:05:00,
2013-03-12 01:10:00,34.2,26.1,30.06,WNW,294,0.0,0.0,72,0.00,,---,0.00,VWS V14.01,2013-03-12 06:10:00,
2013-03-12 01:15:00,35.2,24.6,30.06,WNW,294,0.0,0.0,65,0.00,,---,0.00,VWS V14.01,2013-03-12 06:15:00,
2013-03-12 01:20:00,35.3,27.5,30.06,WNW,294,0.0,0.0,73,0.00,,---,0.00,VWS V14.01,2013-03-12 06:20:00,
2013-03-12 01:25:00,35.1,28.3,30.06,WNW,294,0.0,0.0,76,0.00,,---,0.00,VWS V14.01,2013-03-12 06:25:00,
2013-03-12 01:30:00,36.3,24.1,30.05,WNW,294,0.0,0.0,61,0.00,,---,0.00,VWS V14.01,2013-03-12 06:30:00,
2013-03-12 01:35:00,36.9,23.5,30.05,WNW,294,0.0,1.0,58,0.00,,---,0.00,VWS V14.01,2013-03-12 06:35:00,
2013-03-12 01:40:00,35.5,24.2,30.04,WNW,294,2.0,2.0,63,0.00,,---,0.00,VWS V14.01,2013-03-12 06:40:00,
2013-03-12 01:45:00,33.6,24.5,30.05,WNW,294,0.0,0.0,69,0.00,,---,0.00,VWS V14.01,2013-03-12 06:45:00,
2013-03-12 01:50:00,33.3,24.9,30.05,WNW,294,0.0,0.0,71,0.00,,---,0.00,VWS V14.01,2013-03-12 06:50:00,
2013-03-12 01:55:00,33.9,24.5,30.05,WNW,294,2.0,2.0,68,0.00,,---,0.00,VWS V14.01,2013-03-12 06:55:00,
2013-03-12 02:00:00,36.7,23.7,30.05,WNW,294,0.0,1.0,59,0.00,,---,0.00,VWS V14.01,2013-03-12 07:00:00,
2013-03-12 02:05:00,38.9,22.3,30.05,WNW,294,0.0,2.0,51,0.00,,---,0.00,VWS V14.01,2013-03-12 07:05:00,
2013-03-12 02:10:00,39.5,22.4,30.04,WNW,294,0.0,2.0,50,0.00,,---,0.00,VWS V14.01,2013-03-12 07:10:00,
2013-03-12 02:15:00,39.2,22.6,30.05,WNW,294,2.0,2.0,51,0.00,,---,0.00,VWS V14.01,2013-03-12 07:15:00,
2013-03-12 02:20:00,39.1,22.5,30.05,WNW,294,0.0,1.0,51,0.00,,---,0.00,VWS V14.01,2013-03-12 07:20:00,
2013-03-12 02:25:00,39.2,22.6,30.05,WNW,294,0.0,0.0,51,0.00,,---,0.00,VWS V14.01,2013-03-12 07:25:00,
2013-03-12 02:30:00,39.3,22.7,30.06,WNW,294,0.0,0.0,51,0.00,,---,0.00,VWS V14.01,2013-03-12 07:30:00,
2013-03-12 02:35:00,38.9,22.8,30.05,WNW,294,0.0,0.0,52,0.00,,---,0.00,VWS V14.01,2013-03-12 07:35:00,
2013-03-12 02:40:00,38.9,22.8,30.06,WNW,294,0.0,0.0,52,0.00,,---,0.00,VWS V14.01,2013-03-12 07:40:00,
2013-03-12 02:45:00,39.3,22.7,30.06,WNW,294,0.0,0.0,51,0.00,,---,0.00,VWS V14.01,2013-03-12 07:45:00,
2013-03-12 02:50:00,39.3,23.2,30.07,WNW,294,2.0,2.0,52,0.00,,---,0.00,VWS V14.01,2013-03-12 07:50:00,
2013-03-12 02:55:00,39.1,23.4,30.07,WNW,294,2.0,2.0,53,0.00,,---,0.00,VWS V14.01,2013-03-12 07:55:00,
2013-03-12 03:00:00,38.2,25.1,30.07,WNW,294,0.0,1.0,59,0.00,,---,0.00,VWS V14.01,2013-03-12 08:00:00,
2013-03-12 03:05:00,37.3,24.3,30.07,WNW,294,0.0,0.0,59,0.00,,---,0.00,VWS V14.01,2013-03-12 08:05:00,
2013-03-12 03:10:00,37.7,22.6,30.07,WNW,294,4.0,4.0,54,0.00,,---,0.00,VWS V14.01,2013-03-12 08:10:00,
2013-03-12 03:15:00,38.5,22.9,30.07,WNW,294,2.0,2.0,53,0.00,,---,0.00,VWS V14.01,2013-03-12 08:15:00,
2013-03-12 03:20:00,38.4,23.7,30.07,WNW,294,4.0,4.0,55,0.00,,---,0.00,VWS V14.01,2013-03-12 08:20:00,
2013-03-12 03:25:00,38.5,23.3,30.07,WNW,294,2.0,2.0,54,0.00,,---,0.00,VWS V14.01,2013-03-12 08:25:00,
2013-03-12 03:30:00,38.4,24.1,30.08,SW,215,4.0,4.0,56,0.00,,---,0.00,VWS V14.01,2013-03-12 08:30:00,
2013-03-12 03:35:00,38.4,24.1,30.08,SW,215,2.0,2.0,56,0.00,,---,0.00,VWS V14.01,2013-03-12 08:35:00,
2013-03-12 03:40:00,37.9,24.9,30.08,SW,215,0.0,0.0,59,0.00,,---,0.00,VWS V14.01,2013-03-12 08:40:00,
2013-03-12 03:45:00,37.3,24.7,30.08,SW,215,0.0,0.0,60,0.00,,---,0.00,VWS V14.01,2013-03-12 08:45:00,
2013-03-12 03:50:00,37.1,25.3,30.09,SW,215,0.0,0.0,62,0.00,,---,0.00,VWS V14.01,2013-03-12 08:50:00,
2013-03-12 03:55:00,36.6,24.4,30.09,SW,215,0.0,0.0,61,0.00,,---,0.00,VWS V14.01,2013-03-12 08:55:00,
2013-03-12 04:00:00,35.7,25.1,30.09,SW,215,0.0,0.0,65,0.00,,---,0.00,VWS V14.01,2013-03-12 09:00:00,
2013-03-12 04:05:00,34.8,24.6,30.09,SW,215,0.0,0.0,66,0.00,,---,0.00,VWS V14.01,2013-03-12 09:05:00,
2013-03-12 04:10:00,34.2,24.8,30.09,SW,215,0.0,0.0,68,0.00,,---,0.00,VWS V14.01,2013-03-12 09:10:00,
2013-03-12 04:15:00,34.0,24.9,30.09,SW,215,2.0,2.0,69,0.00,,---,0.00,VWS V14.01,2013-03-12 09:15:00,
2013-03-12 04:20:00,34.6,25.1,30.09,SW,215,0.0,0.0,68,0.00,,---,0.00,VWS V14.01,2013-03-12 09:20:00,
2013-03-12 04:25:00,34.7,25.9,30.10,SW,215,4.0,4.0,70,0.00,,---,0.00,VWS V14.01,2013-03-12 09:25:00,
2013-03-12 04:30:00,33.8,25.4,30.10,SW,215,0.0,0.0,71,0.00,,---,0.00,VWS V14.01,2013-03-12 09:30:00,
2013-03-12 04:35:00,33.3,25.6,30.11,SW,215,2.0,2.0,73,0.00,,---,0.00,VWS V14.01,2013-03-12 09:35:00,
2013-03-12 04:40:00,33.4,26.0,30.11,SW,215,2.0,2.0,74,0.00,,---,0.00,VWS V14.01,2013-03-12 09:40:00,
2013-03-12 04:45:00,33.7,26.6,30.11,SW,215,2.0,2.0,75,0.00,,---,0.00,VWS V14.01,2013-03-12 09:45:00,
2013-03-12 04:50:00,34.3,27.2,30.12,SW,215,0.0,0.0,75,0.00,,---,0.00,VWS V14.01,2013-03-12 09:50:00,
2013-03-12 04:55:00,34.6,27.2,30.12,SW,215,0.0,0.0,74,0.00,,---,0.00,VWS V14.01,2013-03-12 09:55:00,
2013-03-12 05:00:00,35.1,26.7,30.12,SW,215,0.0,1.0,71,0.00,,---,0.00,VWS V14.01,2013-03-12 10:00:00,
2013-03-12 05:05:00,35.8,25.9,30.12,SW,215,0.0,0.0,67,0.00,,---,0.00,VWS V14.01,2013-03-12 10:05:00,
2013-03-12 05:10:00,36.1,26.2,30.12,SW,215,2.0,2.0,67,0.00,,---,0.00,VWS V14.01,2013-03-12 10:10:00,
2013-03-12 05:15:00,36.2,26.3,30.12,SW,215,0.0,0.0,67,0.00,,---,0.00,VWS V14.01,2013-03-12 10:15:00,
2013-03-12 05:20:00,36.3,26.4,30.12,SW,215,0.0,1.0,67,0.00,,---,0.00,VWS V14.01,2013-03-12 10:20:00,
2013-03-12 05:25:00,35.8,27.0,30.14,SW,215,2.0,2.0,70,0.00,,---,0.00,VWS V14.01,2013-03-12 10:25:00,
2013-03-12 05:30:00,35.9,26.0,30.14,SW,215,2.0,2.0,67,0.00,,---,0.00,VWS V14.01,2013-03-12 10:30:00,
2013-03-12 05:35:00,36.2,26.3,30.14,SW,215,0.0,0.0,67,0.00,,---,0.00,VWS V14.01,2013-03-12 10:35:00,
2013-03-12 05:40:00,36.3,26.8,30.14,SW,215,0.0,0.0,68,0.00,,---,0.00,VWS V14.01,2013-03-12 10:40:00,
2013-03-12 05:45:00,36.7,26.1,30.14,SW,215,2.0,2.0,65,0.00,,---,0.00,VWS V14.01,2013-03-12 10:45:00,
2013-03-12 05:50:00,36.8,26.5,30.15,SW,215,2.0,2.0,66,0.00,,---,0.00,VWS V14.01,2013-03-12 10:50:00,
2013-03-12 05:55:00,36.5,26.6,30.15,SW,215,0.0,1.0,67,0.00,,---,0.00,VWS V14.01,2013-03-12 10:55:00,
2013-03-12 06:00:00,36.8,26.5,30.16,SW,215,2.0,2.0,66,0.00,,---,0.00,VWS V14.01,2013-03-12 11:00:00,
2013-03-12 06:05:00,37.4,27.5,30.16,SW,215,0.0,0.0,67,0.00,,---,0.00,VWS V14.01,2013-03-12 11:05:00,
2013-03-12 06:10:00,37.8,27.1,30.16,SW,215,0.0,0.0,65,0.00,,---,0.00,VWS V14.01,2013-03-12 11:10:00,
2013-03-12 06:15:00,38.2,27.1,30.15,SW,215,0.0,0.0,64,0.00,,---,0.00,VWS V14.01,2013-03-12 11:15:00,
2013-03-12 06:20:00,38.3,27.2,30.15,SW,215,0.0,0.0,64,0.00,,---,0.00,VWS V14.01,2013-03-12 11:20:00,
2013-03-12 06:25:00,38.3,26.8,30.15,SW,215,0.0,0.0,63,0.00,,---,0.00,VWS V14.01,2013-03-12 11:25:00,
2013-03-12 06:30:00,38.2,27.1,30.15,SW,215,0.0,0.0,64,0.00,,---,0.00,VWS V14.01,2013-03-12 11:30:00,
2013-03-12 06:35:00,38.0,29.1,30.15,SW,215,0.0,1.0,70,0.00,,---,0.00,VWS V14.01,2013-03-12 11:35:00,
2013-03-12 06:40:00,37.4,28.5,30.15,SW,215,0.0,0.0,70,0.00,,---,0.00,VWS V14.01,2013-03-12 11:40:00,
2013-03-12 06:45:00,36.9,28.7,30.15,SW,215,0.0,0.0,72,0.00,,---,0.00,VWS V14.01,2013-03-12 11:45:00,
2013-03-12 06:50:00,36.1,29.0,30.15,SW,215,0.0,0.0,75,0.00,,---,0.00,VWS V14.01,2013-03-12 11:50:00,
2013-03-12 06:55:00,35.6,28.8,30.16,SW,215,0.0,0.0,76,0.00,,---,0.00,VWS V14.01,2013-03-12 11:55:00,
2013-03-12 07:00:00,35.1,29.3,30.16,SW,215,0.0,0.0,79,0.00,,---,0.00,VWS V14.01,2013-03-12 12:00:00,
2013-03-12 07:05:00,35.0,29.2,30.16,SW,215,0.0,0.0,79,0.00,,---,0.00,VWS V14.01,2013-03-12 12:05:00,
2013-03-12 07:10:00,35.1,28.9,30.16,SW,215,0.0,0.0,78,0.00,,---,0.00,VWS V14.01,2013-03-12 12:10:00,
2013-03-12 07:15:00,35.7,28.9,30.16,SW,215,0.0,0.0,76,0.00,,---,0.00,VWS V14.01,2013-03-12 12:15:00,
2013-03-12 07:20:00,36.4,28.6,30.16,SW,215,0.0,0.0,73,0.00,,---,0.00,VWS V14.01,2013-03-12 12:20:00,
2013-03-12 07:25:00,37.3,28.4,30.16,SW,215,0.0,0.0,70,0.00,,---,0.00,VWS V14.01,2013-03-12 12:25:00,
2013-03-12 07:30:00,38.0,28.0,30.16,SW,215,0.0,0.0,67,0.00,,---,0.00,VWS V14.01,2013-03-12 12:30:00,
2013-03-12 07:35:00,38.2,27.9,30.16,SW,215,0.0,0.0,66,0.00,,---,0.00,VWS V14.01,2013-03-12 12:35:00,
2013-03-12 07:40:00,38.4,29.8,30.17,SW,215,0.0,1.0,71,0.00,,---,0.00,VWS V14.01,2013-03-12 12:40:00,
2013-03-12 07:45:00,37.8,29.6,30.18,SW,215,0.0,0.0,72,0.00,,---,0.00,VWS V14.01,2013-03-12 12:45:00,
2013-03-12 07:50:00,37.7,29.5,30.18,SW,215,0.0,0.0,72,0.00,,---,0.00,VWS V14.01,2013-03-12 12:50:00,
2013-03-12 07:55:00,37.8,30.3,30.18,SW,215,2.0,2.0,74,0.00,,---,0.00,VWS V14.01,2013-03-12 12:55:00,
2013-03-12 08:00:00,38.0,30.1,30.18,SW,215,0.0,0.0,73,0.00,,---,0.00,VWS V14.01,2013-03-12 13:00:00,
2013-03-12 08:05:00,38.3,30.1,30.18,SW,215,2.0,2.0,72,0.00,,---,0.00,VWS V14.01,2013-03-12 13:05:00,
2013-03-12 08:10:00,38.6,29.7,30.18,SW,215,4.0,4.0,70,0.00,,---,0.00,VWS V14.01,2013-03-12 13:10:00,
2013-03-12 08:15:00,38.9,29.6,30.19,SW,215,8.0,8.0,69,0.00,,---,0.00,VWS V14.01,2013-03-12 13:15:00,
2013-03-12 08:20:00,38.8,29.2,30.19,SW,215,6.0,6.0,68,0.00,,---,0.00,VWS V14.01,2013-03-12 13:20:00,
2013-03-12 08:25:00,38.7,29.1,30.19,SW,215,2.0,2.0,68,0.00,,---,0.00,VWS V14.01,2013-03-12 13:25:00,
2013-03-12 08:30:00,38.8,29.5,30.20,SW,215,2.0,2.0,69,0.00,,---,0.00,VWS V14.01,2013-03-12 13:30:00,
2013-03-12 08:35:00,39.0,29.7,30.20,SW,215,4.0,4.0,69,0.00,,---,0.00,VWS V14.01,2013-03-12 13:35:00,
2013-03-12 08:40:00,39.2,29.9,30.20,SW,215,4.0,4.0,69,0.00,,---,0.00,VWS V14.01,2013-03-12 13:40:00,
2013-03-12 08:45:00,39.5,30.2,30.20,SW,215,2.0,2.0,69,0.00,,---,0.00,VWS V14.01,2013-03-12 13:45:00,
2013-03-12 08:50:00,39.8,29.8,30.20,SW,215,6.0,6.0,67,0.00,,---,0.00,VWS V14.01,2013-03-12 13:50:00,
2013-03-12 08:55:00,40.0,29.9,30.21,SW,215,6.0,6.0,67,0.00,,---,0.00,VWS V14.01,2013-03-12 13:55:00,
2013-03-12 09:00:00,40.3,30.2,30.21,SW,215,8.0,8.0,67,0.00,,---,0.00,VWS V14.01,2013-03-12 14:00:00,
2013-03-12 09:05:00,40.7,30.6,30.21,SW,215,6.0,6.0,67,0.00,,---,0.00,VWS V14.01,2013-03-12 14:05:00,
2013-03-12 09:10:00,41.0,30.5,30.22,SW,215,8.0,8.0,66,0.00,,---,0.00,VWS V14.01,2013-03-12 14:10:00,
2013-03-12 09:15:00,41.3,30.1,30.22,SW,215,4.0,4.0,64,0.00,,---,0.00,VWS V14.01,2013-03-12 14:15:00,
2013-03-12 09:20:00,41.7,30.0,30.22,SW,215,6.0,6.0,63,0.00,,---,0.00,VWS V14.01,2013-03-12 14:20:00,
2013-03-12 09:25:00,42.0,31.5,30.23,SW,216,2.0,2.0,66,0.00,,---,0.00,VWS V14.01,2013-03-12 14:25:00,
2013-03-12 09:30:00,41.9,31.4,30.22,SW,222,0.0,2.0,66,0.00,,---,0.00,VWS V14.01,2013-03-12 14:30:00,
2013-03-12 09:35:00,42.5,31.6,30.22,SW,222,0.0,0.0,65,0.00,,---,0.00,VWS V14.01,2013-03-12 14:35:00,
2013-03-12 09:40:00,43.2,32.6,30.22,SW,222,6.0,6.0,66,0.00,,---,0.00,VWS V14.01,2013-03-12 14:40:00,
2013-03-12 09:45:00,44.3,33.7,30.23,SW,222,0.0,0.0,66,0.00,,---,0.00,VWS V14.01,2013-03-12 14:45:00,
2013-03-12 09:50:00,45.4,35.1,30.22,SW,222,2.0,3.0,67,0.00,,---,0.00,VWS V14.01,2013-03-12 14:50:00,
2013-03-12 09:55:00,45.8,36.2,30.22,SW,223,0.0,0.0,69,0.00,,---,0.00,VWS V14.01,2013-03-12 14:55:00,
2013-03-12 10:00:00,46.1,36.5,30.23,SW,223,2.0,2.0,69,0.00,,---,0.00,VWS V14.01,2013-03-12 15:00:00,
2013-03-12 10:05:00,46.3,37.1,30.22,SW,223,8.0,8.0,70,0.00,,---,0.00,VWS V14.01,2013-03-12 15:05:00,
2013-03-12 10:10:00,46.7,37.5,30.22,SW,225,4.0,4.0,70,0.00,,---,0.00,VWS V14.01,2013-03-12 15:10:00,
2013-03-12 10:15:00,47.4,37.4,30.23,SW,225,4.0,4.0,68,0.00,,---,0.00,VWS V14.01,2013-03-12 15:15:00,
2013-03-12 10:20:00,48.0,38.3,30.23,NW,305,8.0,8.0,69,0.00,,---,0.00,VWS V14.01,2013-03-12 15:20:00,
2013-03-12 10:25:00,48.5,38.4,30.23,NW,306,4.0,4.0,68,0.00,,---,0.00,VWS V14.01,2013-03-12 15:25:00,
2013-03-12 10:30:00,49.1,38.6,30.22,NW,316,2.0,2.0,67,0.00,,---,0.00,VWS V14.01,2013-03-12 15:30:00,
2013-03-12 10:35:00,49.6,39.1,30.23,NW,319,6.0,6.0,67,0.00,,---,0.00,VWS V14.01,2013-03-12 15:35:00,
2013-03-12 10:40:00,49.7,38.4,30.23,WNW,290,10.0,10.0,65,0.00,,---,0.00,VWS V14.01,2013-03-12 15:40:00,
2013-03-12 10:45:00,49.3,38.4,30.23,WNW,290,6.0,6.0,66,0.00,,---,0.00,VWS V14.01,2013-03-12 15:45:00,
2013-03-12 10:50:00,50.5,39.6,30.23,NNW,331,8.0,8.0,66,0.00,,---,0.00,VWS V14.01,2013-03-12 15:50:00,
2013-03-12 10:55:00,50.5,38.4,30.23,NNW,346,4.0,4.0,63,0.00,,---,0.00,VWS V14.01,2013-03-12 15:55:00,
2013-03-12 11:00:00,51.7,39.5,30.23,NNW,332,0.0,6.0,63,0.00,,---,0.00,VWS V14.01,2013-03-12 16:00:00,
2013-03-12 11:05:00,52.6,40.0,30.24,NNW,327,6.0,6.0,62,0.00,,---,0.00,VWS V14.01,2013-03-12 16:05:00,
2013-03-12 11:10:00,52.2,39.2,30.23,NNW,335,12.0,12.0,61,0.00,,---,0.00,VWS V14.01,2013-03-12 16:10:00,
2013-03-12 11:15:00,52.4,38.9,30.23,North,355,12.0,12.0,60,0.00,,---,0.00,VWS V14.01,2013-03-12 16:15:00,
2013-03-12 11:20:00,53.2,39.7,30.24,NW,324,12.0,12.0,60,0.00,,---,0.00,VWS V14.01,2013-03-12 16:20:00,
2013-03-12 11:25:00,53.0,38.2,30.23,NNE,22,12.0,12.0,57,0.00,,---,0.00,VWS V14.01,2013-03-12 16:25:00,
2013-03-12 11:30:00,52.9,36.2,30.24,NNW,343,12.0,12.0,53,0.00,,---,0.00,VWS V14.01,2013-03-12 16:30:00,
2013-03-12 11:35:00,52.7,33.6,30.24,North,355,8.0,8.0,48,0.00,,---,0.00,VWS V14.01,2013-03-12 16:35:00,
2013-03-12 11:40:00,52.8,32.1,30.24,North,355,12.0,12.0,45,0.00,,---,0.00,VWS V14.01,2013-03-12 16:40:00,
2013-03-12 11:45:00,52.9,34.3,30.24,North,350,2.0,2.0,49,0.00,,---,0.00,VWS V14.01,2013-03-12 16:45:00,
2013-03-12 11:50:00,52.8,33.2,30.24,NNE,15,10.0,10.0,47,0.00,,---,0.00,VWS V14.01,2013-03-12 16:50:00,
2013-03-12 11:55:00,53.0,33.3,30.24,NNW,340,10.0,10.0,47,0.00,,---,0.00,VWS V14.01,2013-03-12 16:55:00,
2013-03-12 12:00:00,53.3,34.7,30.24,NNW,333,10.0,10.0,49,0.00,,---,0.00,VWS V14.01,2013-03-12 17:00:00,
2013-03-12 12:05:00,53.9,35.2,30.24,NW,318,10.0,10.0,49,0.00,,---,0.00,VWS V14.01,2013-03-12 17:05:00,
2013-03-12 12:10:00,54.2,36.0,30.24,NW,324,6.0,6.0,50,0.00,,---,0.00,VWS V14.01,2013-03-12 17:10:00,
2013-03-12 12:15:00,54.3,37.1,30.24,NNW,327,6.0,7.0,52,0.00,,---,0.00,VWS V14.01,2013-03-12 17:15:00,
2013-03-12 12:20:00,54.9,36.6,30.24,NNW,329,10.0,10.0,50,0.00,,---,0.00,VWS V14.01,2013-03-12 17:20:00,
2013-03-12 12:25:00,54.9,37.1,30.24,NNW,333,4.0,10.0,51,0.00,,---,0.00,VWS V14.01,2013-03-12 17:25:00,
2013-03-12 12:30:00,55.2,38.4,30.24,NNW,342,8.0,8.0,53,0.00,,---,0.00,VWS V14.01,2013-03-12 17:30:00,
2013-03-12 12:35:00,55.6,38.3,30.24,NNW,346,8.0,8.0,52,0.00,,---,0.00,VWS V14.01,2013-03-12 17:35:00,
2013-03-12 12:40:00,55.3,37.0,30.24,NW,322,8.0,8.0,50,0.00,,---,0.00,VWS V14.01,2013-03-12 17:40:00,
2013-03-12 12:45:00,55.3,38.0,30.24,NNW,336,8.0,8.0,52,0.00,,---,0.00,VWS V14.01,2013-03-12 17:45:00,
2013-03-12 12:50:00,55.5,38.7,30.23,WNW,291,2.0,5.0,53,0.00,,---,0.00,VWS V14.01,2013-03-12 17:50:00,
2013-03-12 12:55:00,55.9,39.5,30.24,West,276,2.0,4.0,54,0.00,,---,0.00,VWS V14.01,2013-03-12 17:55:00,
2013-03-12 13:00:00,55.9,39.0,30.24,West,271,8.0,8.0,53,0.00,,---,0.00,VWS V14.01,2013-03-12 18:00:00,
2013-03-12 13:05:00,55.4,38.6,30.24,NNW,327,8.0,8.0,53,0.00,,---,0.00,VWS V14.01,2013-03-12 18:05:00,
2013-03-12 13:10:00,56.2,38.8,30.23,WNW,292,4.0,7.0,52,0.00,,---,0.00,VWS V14.01,2013-03-12 18:10:00,
2013-03-12 13:15:00,55.8,37.5,30.24,NNW,346,12.0,12.0,50,0.00,,---,0.00,VWS V14.01,2013-03-12 18:15:00,
2013-03-12 13:20:00,56.1,38.2,30.24,NNW,340,6.0,10.0,51,0.00,,---,0.00,VWS V14.01,2013-03-12 18:20:00,
2013-03-12 13:25:00,56.1,37.2,30.23,NW,309,4.0,4.0,49,0.00,,---,0.00,VWS V14.01,2013-03-12 18:25:00,
2013-03-12 13:30:00,56.4,37.5,30.23,NW,324,6.0,6.0,49,0.00,,---,0.00,VWS V14.01,2013-03-12 18:30:00,
2013-03-12 13:35:00,57.1,37.1,30.23,NNW,335,10.0,10.0,47,0.00,,---,0.00,VWS V14.01,2013-03-12 18:35:00,
2013-03-12 13:40:00,56.5,37.1,30.23,NW,311,4.0,8.0,48,0.00,,---,0.00,VWS V14.01,2013-03-12 18:40:00,
2013-03-12 13:45:00,56.3,36.3,30.23,NNW,337,16.0,16.0,47,0.00,,---,0.00,VWS V14.01,2013-03-12 18:45:00,
2013-03-12 13:50:00,56.0,36.1,30.23,WNW,294,2.0,6.0,47,0.00,,---,0.00,VWS V14.01,2013-03-12 18:50:00,
2013-03-12 13:55:00,56.9,36.3,30.23,NW,325,12.0,12.0,46,0.00,,---,0.00,VWS V14.01,2013-03-12 18:55:00,
2013-03-12 14:00:00,57.0,36.4,30.22,WSW,255,6.0,6.0,46,0.00,,---,0.00,VWS V14.01,2013-03-12 19:00:00,
2013-03-12 14:05:00,57.5,36.3,30.22,NNW,328,14.0,14.0,45,0.00,,---,0.00,VWS V14.01,2013-03-12 19:05:00,
2013-03-12 14:10:00,56.9,36.3,30.22,NNW,345,20.0,20.0,46,0.00,,---,0.00,VWS V14.01,2013-03-12 19:10:00,
2013-03-12 14:15:00,57.2,36.6,30.22,WNW,294,6.0,6.0,46,0.00,,---,0.00,VWS V14.01,2013-03-12 19:15:00,
2013-03-12 14:20:00,57.2,36.1,30.22,NNW,327,2.0,5.0,45,0.00,,---,0.00,VWS V14.01,2013-03-12 19:20:00,
2013-03-12 14:25:00,57.8,36.0,30.22,WSW,258,4.0,7.0,44,0.00,,---,0.00,VWS V14.01,2013-03-12 19:25:00,
2013-03-12 14:30:00,57.3,35.6,30.21,WNW,303,12.0,12.0,44,0.00,,---,0.00,VWS V14.01,2013-03-12 19:30:00,
2013-03-12 14:35:00,57.3,36.2,30.22,NW,317,18.0,18.0,45,0.00,,---,0.00,VWS V14.01,2013-03-12 19:35:00,
2013-03-12 14:40:00,57.0,35.3,30.21,NW,317,4.0,8.0,44,0.00,,---,0.00,VWS V14.01,2013-03-12 19:40:00,
2013-03-12 14:45:00,58.0,37.4,30.21,West,281,6.0,8.0,46,0.00,,---,0.00,VWS V14.01,2013-03-12 19:45:00,
2013-03-12 14:50:00,58.0,35.7,30.21,NW,306,12.0,12.0,43,0.00,,---,0.00,VWS V14.01,2013-03-12 19:50:00,
2013-03-12 14:55:00,58.0,36.8,30.21,NNW,338,14.0,14.0,45,0.00,,---,0.00,VWS V14.01,2013-03-12 19:55:00,
2013-03-12 15:00:00,58.0,35.1,30.21,NNW,329,4.0,10.0,42,0.00,,---,0.00,VWS V14.01,2013-03-12 20:00:00,
2013-03-12 15:05:00,57.6,34.7,30.21,NW,319,10.0,10.0,42,0.00,,---,0.00,VWS V14.01,2013-03-12 20:05:00,
2013-03-12 15:10:00,58.0,35.1,30.21,NW,313,10.0,10.0,42,0.00,,---,0.00,VWS V14.01,2013-03-12 20:10:00,
2013-03-12 15:15:00,58.4,34.2,30.21,NW,321,12.0,12.0,40,0.00,,---,0.00,VWS V14.01,2013-03-12 20:15:00,
2013-03-12 15:20:00,58.1,33.3,30.21,NNW,331,18.0,18.0,39,0.00,,---,0.00,VWS V14.01,2013-03-12 20:20:00,
2013-03-12 15:25:00,57.9,33.1,30.21,West,276,12.0,12.0,39,0.00,,---,0.00,VWS V14.01,2013-03-12 20:25:00,
2013-03-12 15:30:00,57.7,34.2,30.20,NW,325,4.0,8.0,41,0.00,,---,0.00,VWS V14.01,2013-03-12 20:30:00,
2013-03-12 15:35:00,58.3,33.5,30.21,North,350,8.0,8.0,39,0.00,,---,0.00,VWS V14.01,2013-03-12 20:35:00,
2013-03-12 15:40:00,58.0,34.5,30.20,North,355,16.0,16.0,41,0.00,,---,0.00,VWS V14.01,2013-03-12 20:40:00,
2013-03-12 15:45:00,58.2,34.0,30.21,NNW,330,6.0,6.0,40,0.00,,---,0.00,VWS V14.01,2013-03-12 20:45:00,
2013-03-12 15:50:00,58.2,34.0,30.21,NNW,327,8.0,8.0,40,0.00,,---,0.00,VWS V14.01,2013-03-12 20:50:00,
2013-03-12 15:55:00,58.3,34.1,30.20,NW,317,8.0,8.0,40,0.00,,---,0.00,VWS V14.01,2013-03-12 20:55:00,
2013-03-12 16:00:00,58.1,33.3,30.20,NNW,333,2.0,5.0,39,0.00,,---,0.00,VWS V14.01,2013-03-12 21:00:00,
2013-03-12 16:05:00,58.3,33.5,30.20,NW,325,12.0,12.0,39,0.00,,---,0.00,VWS V14.01,2013-03-12 21:05:00,
2013-03-12 16:10:00,58.7,35.7,30.20,NW,304,8.0,8.0,42,0.00,,---,0.00,VWS V14.01,2013-03-12 21:10:00,
2013-03-12 16:15:00,58.8,33.9,30.20,NNW,344,20.0,20.0,39,0.00,,---,0.00,VWS V14.01,2013-03-12 21:15:00,
2013-03-12 16:20:00,58.7,33.2,30.20,NW,326,12.0,12.0,38,0.00,,---,0.00,VWS V14.01,2013-03-12 21:20:00,
2013-03-12 16:25:00,58.6,33.7,30.19,NNW,337,8.0,8.0,39,0.00,,---,0.00,VWS V14.01,2013-03-12 21:25:00,
2013-03-12 16:30:00,59.1,34.8,30.19,NNW,334,12.0,12.0,40,0.00,,---,0.00,VWS V14.01,2013-03-12 21:30:00,
2013-03-12 16:35:00,58.9,33.4,30.19,NW,304,4.0,5.0,38,0.00,,---,0.00,VWS V14.01,2013-03-12 21:35:00,
2013-03-12 16:40:00,58.9,33.4,30.19,NW,325,4.0,5.0,38,0.00,,---,0.00,VWS V14.01,2013-03-12 21:40:00,
2013-03-12 16:45:00,58.8,33.3,30.19,NW,306,8.0,8.0,38,0.00,,---,0.00,VWS V14.01,2013-03-12 21:45:00,
2013-03-12 16:50:00,59.0,32.1,30.19,NW,325,12.0,12.0,36,0.00,,---,0.00,VWS V14.01,2013-03-12 21:50:00,
2013-03-12 16:55:00,59.1,29.3,30.19,NW,304,12.0,12.0,32,0.00,,---,0.00,VWS V14.01,2013-03-12 21:55:00,
2013-03-12 17:00:00,59.1,30.8,30.20,NW,325,14.0,14.0,34,0.00,,---,0.00,VWS V14.01,2013-03-12 22:00:00,
2013-03-12 17:05:00,58.9,29.9,30.19,NW,313,10.0,10.0,33,0.00,,---,0.00,VWS V14.01,2013-03-12 22:05:00,
2013-03-12 17:10:00,59.2,30.9,30.20,NW,325,10.0,10.0,34,0.00,,---,0.00,VWS V14.01,2013-03-12 22:10:00,
2013-03-12 17:15:00,59.1,29.3,30.19,NNW,339,12.0,12.0,32,0.00,,---,0.00,VWS V14.01,2013-03-12 22:15:00,
2013-03-12 17:20:00,59.0,30.0,30.19,NW,319,12.0,12.0,33,0.00,,---,0.00,VWS V14.01,2013-03-12 22:20:00,
2013-03-12 17:25:00,59.1,29.3,30.19,NNW,331,14.0,14.0,32,0.00,,---,0.00,VWS V14.01,2013-03-12 22:25:00,
2013-03-12 17:30:00,59.1,29.3,30.19,NW,324,10.0,10.0,32,0.00,,---,0.00,VWS V14.01,2013-03-12 22:30:00,
2013-03-12 17:35:00,59.3,29.5,30.19,NNW,331,4.0,6.0,32,0.00,,---,0.00,VWS V14.01,2013-03-12 22:35:00,
2013-03-12 17:40:00,59.3,30.2,30.19,NW,321,10.0,12.0,33,0.00,,---,0.00,VWS V14.01,2013-03-12 22:40:00,
2013-03-12 17:48:00,59.3,29.5,30.19,NW,313,8.0,12.0,32,0.00,,---,0.00,VWS V14.01,2013-03-12 22:48:00,
2013-03-12 17:53:00,59.7,30.6,30.19,NNW,335,14.0,14.0,33,0.00,,---,0.00,VWS V14.01,2013-03-12 22:53:00,
2013-03-12 17:58:00,59.4,28.8,30.19,West,279,14.0,14.0,31,0.00,,---,0.00,VWS V14.01,2013-03-12 22:58:00,
2013-03-12 18:03:00,59.4,28.8,30.19,NNW,327,4.0,8.0,31,0.00,,---,0.00,VWS V14.01,2013-03-12 23:03:00,
2013-03-12 18:08:00,59.1,28.5,30.19,NNW,340,18.0,18.0,31,0.00,,---,0.00,VWS V14.01,2013-03-12 23:08:00,
2013-03-12 18:13:00,58.8,29.0,30.19,WNW,300,14.0,14.0,32,0.00,,---,0.00,VWS V14.01,2013-03-12 23:13:00,
2013-03-12 18:18:00,58.7,29.7,30.19,WNW,286,4.0,6.0,33,0.00,,---,0.00,VWS V14.01,2013-03-12 23:18:00,
2013-03-12 18:23:00,58.8,29.8,30.20,NNW,327,10.0,10.0,33,0.00,,---,0.00,VWS V14.01,2013-03-12 23:23:00,
2013-03-12 18:28:00,58.7,29.7,30.20,WNW,298,4.0,5.0,33,0.00,,---,0.00,VWS V14.01,2013-03-12 23:28:00,
2013-03-12 18:33:00,58.4,30.2,30.20,NW,320,2.0,6.0,34,0.00,,---,0.00,VWS V14.01,2013-03-12 23:33:00,
2013-03-12 18:38:00,58.3,30.1,30.20,WNW,302,4.0,5.0,34,0.00,,---,0.00,VWS V14.01,2013-03-12 23:38:00,
2013-03-12 18:43:00,58.1,30.6,30.20,NNW,329,4.0,5.0,35,0.00,,---,0.00,VWS V14.01,2013-03-12 23:43:00,
2013-03-12 18:48:00,57.7,29.5,30.21,NNW,335,14.0,14.0,34,0.00,,---,0.00,VWS V14.01,2013-03-12 23:48:00,
2013-03-12 18:53:00,57.3,29.9,30.21,NW,315,10.0,10.0,35,0.00,,---,0.00,VWS V14.01,2013-03-12 23:53:00,
2013-03-12 18:58:00,57.1,29.7,30.21,NW,309,8.0,8.0,35,0.00,,---,0.00,VWS V14.01,2013-03-12 23:58:00,
2013-03-12 19:03:00,56.7,29.4,30.21,NNW,333,12.0,12.0,35,0.00,,---,0.00,VWS V14.01,2013-03-13 00:03:00,
2013-03-12 19:08:00,56.3,29.7,30.21,NW,309,6.0,6.0,36,0.00,,---,0.00,VWS V14.01,2013-03-13 00:08:00,
2013-03-12 19:13:00,56.0,30.1,30.21,NW,317,6.0,6.0,37,0.00,,---,0.00,VWS V14.01,2013-03-13 00:13:00,
2013-03-12 19:18:00,55.7,29.9,30.22,NNW,337,10.0,10.0,37,0.00,,---,0.00,VWS V14.01,2013-03-13 00:18:00,
2013-03-12 19:23:00,55.2,30.1,30.22,NW,325,4.0,4.0,38,0.00,,---,0.00,VWS V14.01,2013-03-13 00:23:00,
2013-03-12 19:28:00,54.9,29.8,30.22,NW,315,0.0,5.0,38,0.00,,---,0.00,VWS V14.01,2013-03-13 00:28:00,
2013-03-12 19:33:00,54.5,29.4,30.22,NW,321,6.0,6.0,38,0.00,,---,0.00,VWS V14.01,2013-03-13 00:33:00,
2013-03-12 19:38:00,54.3,29.9,30.23,NNW,334,14.0,14.0,39,0.00,,---,0.00,VWS V14.01,2013-03-13 00:38:00,
2013-03-12 19:43:00,54.1,29.1,30.23,NNW,342,12.0,12.0,38,0.00,,---,0.00,VWS V14.01,2013-03-13 00:43:00,
2013-03-12 19:48:00,54.1,29.1,30.23,NW,316,12.0,12.0,38,0.00,,---,0.00,VWS V14.01,2013-03-13 00:48:00,
2013-03-12 19:53:00,54.0,29.0,30.24,NW,308,6.0,6.0,38,0.00,,---,0.00,VWS V14.01,2013-03-13 00:53:00,
2013-03-12 19:58:00,53.7,29.4,30.24,NW,324,10.0,10.0,39,0.00,,---,0.00,VWS V14.01,2013-03-13 00:58:00,
2013-03-12 20:03:00,53.3,29.0,30.24,NNW,331,14.0,14.0,39,0.00,,---,0.00,VWS V14.01,2013-03-13 01:03:00,
2013-03-12 20:08:00,52.6,29.0,30.25,North,360,8.0,8.0,40,0.00,,---,0.00,VWS V14.01,2013-03-13 01:08:00,
2013-03-12 20:13:00,52.0,29.6,30.25,North,355,4.0,4.0,42,0.00,,---,0.00,VWS V14.01,2013-03-13 01:13:00,
2013-03-12 20:18:00,51.4,29.7,30.25,North,355,2.0,3.0,43,0.00,,---,0.00,VWS V14.01,2013-03-13 01:18:00,
2013-03-12 20:23:00,50.9,29.8,30.25,North,355,4.0,4.0,44,0.00,,---,0.00,VWS V14.01,2013-03-13 01:23:00,
2013-03-12 20:28:00,50.8,30.8,30.26,NNW,329,8.0,8.0,46,0.00,,---,0.00,VWS V14.01,2013-03-13 01:28:00,
2013-03-12 20:33:00,50.9,30.9,30.26,North,360,2.0,4.0,46,0.00,,---,0.00,VWS V14.01,2013-03-13 01:33:00,
2013-03-12 20:38:00,50.9,30.3,30.27,North,5,6.0,6.0,45,0.00,,---,0.00,VWS V14.01,2013-03-13 01:38:00,
2013-03-12 20:43:00,50.7,30.1,30.27,North,5,4.0,4.0,45,0.00,,---,0.00,VWS V14.01,2013-03-13 01:43:00,
2013-03-12 20:48:00,50.1,29.6,30.27,North,5,6.0,6.0,45,0.00,,---,0.00,VWS V14.01,2013-03-13 01:48:00,
2013-03-12 20:53:00,49.7,29.8,30.27,North,5,0.0,0.0,46,0.00,,---,0.00,VWS V14.01,2013-03-13 01:53:00,
2013-03-12 20:58:00,49.5,29.6,30.28,NNW,348,2.0,2.0,46,0.00,,---,0.00,VWS V14.01,2013-03-13 01:58:00,
2013-03-12 21:03:00,49.2,29.3,30.28,NNW,348,2.0,2.0,46,0.00,,---,0.00,VWS V14.01,2013-03-13 02:03:00,
2013-03-12 21:08:00,48.8,29.0,30.28,NNW,348,6.0,6.0,46,0.00,,---,0.00,VWS V14.01,2013-03-13 02:08:00,
2013-03-12 21:13:00,48.7,28.9,30.28,North,355,0.0,0.0,46,0.00,,---,0.00,VWS V14.01,2013-03-13 02:13:00,
2013-03-12 21:18:00,48.4,28.6,30.28,North,355,4.0,4.0,46,0.00,,---,0.00,VWS V14.01,2013-03-13 02:18:00,
2013-03-12 21:23:00,48.3,29.0,30.28,North,355,2.0,3.0,47,0.00,,---,0.00,VWS V14.01,2013-03-13 02:23:00,
2013-03-12 21:28:00,48.0,28.8,30.28,North,355,6.0,6.0,47,0.00,,---,0.00,VWS V14.01,2013-03-13 02:28:00,
2013-03-12 21:33:00,47.6,28.9,30.29,North,355,0.0,1.0,48,0.00,,---,0.00,VWS V14.01,2013-03-13 02:33:00,
2013-03-12 21:38:00,47.4,28.7,30.29,North,351,4.0,4.0,48,0.00,,---,0.00,VWS V14.01,2013-03-13 02:38:00,
2013-03-12 21:43:00,47.3,28.6,30.29,North,355,12.0,12.0,48,0.00,,---,0.00,VWS V14.01,2013-03-13 02:43:00,
2013-03-12 21:48:00,47.3,29.1,30.29,North,5,8.0,8.0,49,0.00,,---,0.00,VWS V14.01,2013-03-13 02:48:00,
2013-03-12 21:53:00,47.1,28.9,30.30,North,5,2.0,3.0,49,0.00,,---,0.00,VWS V14.01,2013-03-13 02:53:00,
2013-03-12 21:58:00,46.9,28.8,30.30,North,360,4.0,4.0,49,0.00,,---,0.00,VWS V14.01,2013-03-13 02:58:00,
2013-03-12 22:03:00,46.7,29.1,30.30,North,360,2.0,2.0,50,0.00,,---,0.00,VWS V14.01,2013-03-13 03:03:00,
2013-03-12 22:08:00,46.4,28.8,30.30,North,355,6.0,6.0,50,0.00,,---,0.00,VWS V14.01,2013-03-13 03:08:00,
2013-03-12 22:13:00,46.3,28.7,30.31,North,10,8.0,8.0,50,0.00,,---,0.00,VWS V14.01,2013-03-13 03:13:00,
2013-03-12 22:18:00,46.1,28.0,30.31,North,5,10.0,10.0,49,0.00,,---,0.00,VWS V14.01,2013-03-13 03:18:00,
2013-03-12 22:23:00,46.0,27.9,30.31,North,355,6.0,6.0,49,0.00,,---,0.00,VWS V14.01,2013-03-13 03:23:00,
2013-03-12 22:28:00,46.0,27.9,30.32,North,5,10.0,10.0,49,0.00,,---,0.00,VWS V14.01,2013-03-13 03:28:00,
2013-03-12 22:33:00,45.9,27.8,30.32,North,355,6.0,6.0,49,0.00,,---,0.00,VWS V14.01,2013-03-13 03:33:00,
2013-03-12 22:38:00,45.7,27.6,30.32,North,5,4.0,4.0,49,0.00,,---,0.00,VWS V14.01,2013-03-13 03:38:00,
2013-03-12 22:43:00,45.5,27.5,30.32,North,5,4.0,4.0,49,0.00,,---,0.00,VWS V14.01,2013-03-13 03:43:00,
2013-03-12 22:48:00,45.3,27.3,30.32,North,5,4.0,4.0,49,0.00,,---,0.00,VWS V14.01,2013-03-13 03:48:00,
2013-03-12 22:53:00,45.0,27.5,30.32,North,5,6.0,6.0,50,0.00,,---,0.00,VWS V14.01,2013-03-13 03:53:00,
2013-03-12 22:58:00,44.7,27.2,30.32,North,5,4.0,4.0,50,0.00,,---,0.00,VWS V14.01,2013-03-13 03:58:00,
2013-03-12 23:00:00,44.7,27.2,30.32,North,5,0.0,2.0,50,0.00,,---,0.00,VWS V14.01,2013-03-13 04:00:00,
2013-03-12 23:05:00,44.5,27.5,30.33,North,5,6.0,6.0,51,0.00,,---,0.00,VWS V14.01,2013-03-13 04:05:00,
2013-03-12 23:10:00,44.3,27.3,30.33,North,360,4.0,4.0,51,0.00,,---,0.00,VWS V14.01,2013-03-13 04:10:00,
2013-03-12 23:15:00,44.1,27.1,30.33,North,360,4.0,4.0,51,0.00,,---,0.00,VWS V14.01,2013-03-13 04:15:00,
2013-03-12 23:20:00,43.9,27.0,30.33,North,360,2.0,4.0,51,0.00,,---,0.00,VWS V14.01,2013-03-13 04:20:00,
2013-03-12 23:25:00,43.7,26.8,30.33,North,360,0.0,3.0,51,0.00,,---,0.00,VWS V14.01,2013-03-13 04:25:00,
2013-03-12 23:30:00,43.6,26.7,30.33,North,360,0.0,4.0,51,0.00,,---,0.00,VWS V14.01,2013-03-13 04:30:00,
2013-03-12 23:35:00,43.5,26.6,30.33,North,360,4.0,4.0,51,0.00,,---,0.00,VWS V14.01,2013-03-13 04:35:00,
2013-03-12 23:40:00,43.3,26.4,30.33,North,360,2.0,2.0,51,0.00,,---,0.00,VWS V14.01,2013-03-13 04:40:00,
2013-03-12 23:45:00,43.2,26.3,30.33,North,360,4.0,4.0,51,0.00,,---,0.00,VWS V14.01,2013-03-13 04:45:00,
2013-03-12 23:50:00,43.0,26.6,30.33,North,360,2.0,2.0,52,0.00,,---,0.00,VWS V14.01,2013-03-13 04:50:00,
2013-03-12 23:55:00,42.8,26.4,30.33,North,360,4.0,4.0,52,0.00,,---,0.00,VWS V14.01,2013-03-13 04:55:00,